Time;durP1;ratioP1;P1;durP2;ratioP2;P2;SDS_P1;SDS_P2;PMS_P1;PMS_P2;Temp;Humidity;BMP_temperature;BMP_pressure;BME280_temperature;BME280_humidity;BME280_pressure;Samples;Min_cycle;Max_cycle;Signal;HPM_P1;HPM_P2
2024/02/09 06:09:50;;;;;;;7.47;3.50;;;9.10;90.50;;;;;;5033439;28;20201;-83
2024/02/09 06:15:41;;;;;;;6.70;3.30;;;9.10;91.20;;;;;;5032852;28;20224;-83
2024/02/09 06:18:08;;;;;;;5.35;3.33;;;9.30;90.50;;;;;;5030784;28;20217;-83
2024/02/09 06:20:36;;;;;;;9.55;3.60;;;9.20;90.50;;;;;;5032181;28;20234;-82
2024/02/09 06:23:04;;;;;;;4.95;3.40;;;9.10;90.50;;;;;;5024483;28;20230;-83
2024/02/09 06:35:48;;;;;;;4.70;3.17;;;9.20;91.10;;;;;;5016216;28;20184;-85
2024/02/09 06:45:53;;;;;;;8.13;3.78;;;8.90;91.50;;;;;;5016129;28;20191;-83
2024/02/09 06:55:42;;;;;;;6.32;3.35;;;8.90;91.90;;;;;;5015933;28;20187;-83
2024/02/09 07:23:12;;;;;;;9.43;3.60;;;9.70;90.60;;;;;;5035616;28;20229;-84
2024/02/09 07:29:23;;;;;;;5.72;3.45;;;9.90;89.40;;;;;;5035675;28;20251;-82
2024/02/09 07:31:50;;;;;;;5.10;3.25;;;9.80;90.00;;;;;;5035253;28;20210;-83
2024/02/09 07:34:17;;;;;;;5.72;3.30;;;10.00;88.60;;;;;;5027301;28;20206;-82
2024/02/09 07:36:46;;;;;;;5.05;3.08;;;9.90;88.80;;;;;;5035386;28;20187;-82
2024/02/09 07:42:43;;;;;;;7.18;3.53;;;9.80;90.40;;;;;;5034981;28;20705;-83
2024/02/09 07:52:08;;;;;;;11.20;3.25;;;10.40;84.90;;;;;;5015525;28;20174;-90
2024/02/09 08:29:29;;;;;;;11.07;4.28;;;11.30;74.60;;;;;;5624020;23;20223;-84
2024/02/09 08:35:18;;;;;;;9.35;3.70;;;11.40;74.60;;;;;;4999216;28;20186;-83
2024/02/09 08:37:45;;;;;;;9.88;4.15;;;11.50;74.70;;;;;;5010818;28;20202;-85
2024/02/09 08:40:12;;;;;;;7.10;3.80;;;11.90;67.20;;;;;;5011169;28;20199;-87
2024/02/09 08:42:39;;;;;;;5.30;3.42;;;12.10;62.70;;;;;;5008048;28;20566;-86
2024/02/09 08:45:08;;;;;;;6.65;3.80;;;12.20;61.30;;;;;;5012350;28;20191;-86
2024/02/09 08:47:35;;;;;;;8.23;3.90;;;12.30;60.90;;;;;;5014669;28;20203;-85
2024/02/09 08:50:02;;;;;;;9.02;4.20;;;12.40;57.80;;;;;;5009277;28;20195;-87
2024/02/09 08:52:30;;;;;;;7.05;3.80;;;12.50;56.00;;;;;;5012510;28;20199;-87
2024/02/09 08:54:57;;;;;;;8.60;4.43;;;12.40;58.70;;;;;;5013712;28;20222;-86
2024/02/09 08:57:24;;;;;;;17.35;4.30;;;12.50;59.80;;;;;;5013754;28;20272;-86
2024/02/09 08:59:50;;;;;;;11.18;3.80;;;12.50;57.90;;;;;;5014090;28;20196;-85
2024/02/09 09:02:18;;;;;;;15.07;4.70;;;12.70;57.80;;;;;;5013874;28;20222;-86
2024/02/09 09:04:45;;;;;;;12.70;4.68;;;13.00;54.80;;;;;;5012770;28;20207;-85
2024/02/09 09:07:12;;;;;;;6.78;4.07;;;12.80;57.80;;;;;;5009963;28;20199;-83
2024/02/09 09:09:40;;;;;;;15.60;4.82;;;12.90;60.70;;;;;;5006590;28;20202;-82
2024/02/09 09:12:07;;;;;;;14.02;4.28;;;12.80;57.70;;;;;;5006868;28;20570;-85
2024/02/09 09:14:36;;;;;;;10.32;3.53;;;12.60;57.30;;;;;;5011646;28;20214;-84
2024/02/09 09:17:03;;;;;;;7.25;3.70;;;12.60;57.20;;;;;;4996764;28;20204;-85
2024/02/09 09:19:31;;;;;;;8.43;3.58;;;12.50;56.50;;;;;;5000695;28;20195;-84
2024/02/09 09:21:58;;;;;;;5.30;3.58;;;12.50;57.30;;;;;;5014423;28;20195;-84
2024/02/09 09:27:53;;;;;;;10.38;3.60;;;12.40;58.50;;;;;;5013888;28;20186;-84
2024/02/09 09:33:42;;;;;;;6.10;3.45;;;12.20;58.50;;;;;;5013588;28;20303;-85
2024/02/09 09:36:10;;;;;;;11.10;3.40;;;12.30;58.70;;;;;;5005297;28;20199;-85
2024/02/09 09:38:37;;;;;;;6.55;3.35;;;12.40;57.60;;;;;;5012313;28;20203;-85
2024/02/09 09:41:04;;;;;;;13.05;3.40;;;12.70;57.80;;;;;;5014464;28;20212;-85
2024/02/09 09:47:15;;;;;;;11.80;3.42;;;13.10;54.20;;;;;;5013129;28;20223;-85
2024/02/09 09:49:45;;;;;;;7.95;3.45;;;13.10;52.30;;;;;;5013938;28;20195;-85
2024/02/09 09:52:29;;;;;;;10.90;3.42;;;12.90;55.00;;;;;;5013510;28;20644;-85
2024/02/09 09:58:28;;;;;;;6.35;3.13;;;13.20;50.80;;;;;;4973958;28;20189;-85
2024/02/09 10:45:47;;;;;;;8.82;3.60;;;14.60;39.30;;;;;;4997836;28;20200;-83
2024/02/09 10:52:04;;;;;;;8.63;3.20;;;14.80;38.70;;;;;;4977806;28;20253;-83
2024/02/09 10:58:04;;;;;;;7.47;2.53;;;14.60;38.40;;;;;;4992358;28;20223;-83
2024/02/09 11:03:54;;;;;;;6.60;2.85;;;14.90;36.10;;;;;;5005526;28;20645;-84
2024/02/09 11:09:44;;;;;;;7.60;2.83;;;15.20;34.10;;;;;;4996746;28;20235;-83
2024/02/09 11:15:38;;;;;;;4.70;2.65;;;14.80;34.80;;;;;;5013420;28;20183;-83
2024/02/09 11:18:08;;;;;;;7.53;2.78;;;15.00;33.30;;;;;;5002052;28;20258;-83
2024/02/09 11:20:39;;;;;;;8.20;2.80;;;15.00;32.90;;;;;;5015453;28;20660;-83
2024/02/09 11:23:06;;;;;;;10.43;3.15;;;15.00;33.80;;;;;;5015551;28;20583;-83
2024/02/09 11:25:34;;;;;;;10.65;3.08;;;14.90;31.50;;;;;;4996643;28;20200;-83
2024/02/09 11:28:07;;;;;;;10.07;3.08;;;14.40;33.50;;;;;;4996453;28;20200;-85
2024/02/09 11:30:34;;;;;;;9.20;3.55;;;14.20;34.60;;;;;;5005977;28;20198;-85
2024/02/09 11:33:01;;;;;;;10.60;3.45;;;13.80;36.70;;;;;;5011667;28;20195;-86
2024/02/09 11:35:29;;;;;;;9.85;3.17;;;13.80;37.00;;;;;;5010144;28;20282;-85
2024/02/09 11:37:58;;;;;;;5.97;2.83;;;13.90;37.80;;;;;;5015625;28;20246;-87
2024/02/09 11:40:25;;;;;;;13.80;3.30;;;14.10;37.60;;;;;;5015662;28;20183;-85
2024/02/09 11:42:52;;;;;;;12.13;3.17;;;14.20;36.90;;;;;;5015824;28;20191;-85
2024/02/09 11:48:49;;;;;;;9.98;2.95;;;14.50;34.30;;;;;;5015486;28;20536;-85
2024/02/09 11:51:21;;;;;;;7.55;2.72;;;14.60;32.80;;;;;;5007343;28;20660;-85
2024/02/09 11:53:51;;;;;;;13.30;3.05;;;14.40;33.80;;;;;;5004217;28;20200;-85
2024/02/09 11:56:19;;;;;;;8.50;3.63;;;14.30;34.50;;;;;;5011796;28;20219;-84
2024/02/09 11:58:49;;;;;;;4.88;2.53;;;14.20;35.20;;;;;;5013316;28;20200;-86
2024/02/09 12:01:17;;;;;;;11.35;2.97;;;14.10;35.90;;;;;;5014817;28;20256;-86
2024/02/09 12:03:44;;;;;;;11.68;3.15;;;14.10;36.40;;;;;;5014939;28;20248;-86
2024/02/09 12:06:11;;;;;;;4.90;2.50;;;14.20;36.10;;;;;;5014914;28;20211;-85
2024/02/09 12:08:59;;;;;;;11.15;3.10;;;14.30;36.40;;;;;;5014466;28;20202;-85
2024/02/09 12:11:26;;;;;;;5.93;2.55;;;14.20;35.60;;;;;;5013503;28;20592;-85
2024/02/09 12:13:53;;;;;;;8.80;3.00;;;14.40;35.40;;;;;;5015129;28;20204;-86
2024/02/09 12:16:20;;;;;;;6.38;2.72;;;14.60;35.00;;;;;;5014596;28;20254;-85
2024/02/09 12:18:52;;;;;;;7.35;2.45;;;14.80;34.00;;;;;;5015132;28;20191;-86
2024/02/09 12:21:34;;;;;;;7.55;3.17;;;14.70;32.80;;;;;;5015272;28;20195;-85
2024/02/09 12:24:17;;;;;;;6.68;3.05;;;14.80;33.00;;;;;;5009918;28;20221;-85
2024/02/09 12:26:44;;;;;;;7.50;3.10;;;14.60;33.70;;;;;;5009018;28;20203;-85
2024/02/09 12:29:12;;;;;;;9.82;3.30;;;14.70;34.70;;;;;;4986892;28;20207;-84
2024/02/09 12:31:40;;;;;;;6.93;2.58;;;14.50;34.60;;;;;;5015048;28;20238;-86
2024/02/09 12:34:43;;;;;;;8.80;3.38;;;14.60;34.80;;;;;;5015190;28;20343;-86
2024/02/09 12:37:11;;;;;;;10.95;5.10;;;14.60;34.90;;;;;;5012001;28;20200;-85
2024/02/09 12:39:39;;;;;;;8.27;3.05;;;14.60;35.70;;;;;;5014294;28;20195;-86
2024/02/09 12:42:08;;;;;;;12.40;3.33;;;14.60;34.60;;;;;;5014242;28;20570;-85
2024/02/09 12:44:38;;;;;;;5.95;3.30;;;14.60;35.60;;;;;;5007190;28;20219;-84
2024/02/09 12:47:07;;;;;;;5.78;2.97;;;14.70;35.40;;;;;;5006418;28;20210;-85
2024/02/09 12:49:36;;;;;;;10.65;4.93;;;14.60;34.70;;;;;;4995371;28;20200;-87
2024/02/09 12:52:06;;;;;;;7.25;2.90;;;14.40;35.70;;;;;;5013127;28;20204;-87
2024/02/09 12:54:33;;;;;;;10.00;3.40;;;14.50;35.20;;;;;;5014787;28;20214;-87
2024/02/09 12:57:05;;;;;;;6.57;2.95;;;14.30;36.00;;;;;;5014196;28;20608;-85
2024/02/09 13:02:59;;;;;;;6.60;2.92;;;14.40;36.10;;;;;;5013640;28;20185;-87
2024/02/09 13:05:28;;;;;;;7.78;3.10;;;14.30;36.70;;;;;;5011144;28;20719;-87
2024/02/09 13:07:55;;;;;;;6.68;3.10;;;14.30;37.00;;;;;;5008923;28;20675;-87
2024/02/09 13:10:22;;;;;;;9.45;3.33;;;14.20;38.10;;;;;;5014561;28;20199;-87
2024/02/09 13:12:51;;;;;;;10.25;3.72;;;14.30;37.70;;;;;;5009760;28;20211;-88
2024/02/09 13:15:20;;;;;;;10.45;3.35;;;14.30;38.40;;;;;;5007684;28;20199;-85
2024/02/09 13:17:46;;;;;;;11.75;3.97;;;14.30;38.50;;;;;;5004359;28;20254;-85
2024/02/09 13:20:18;;;;;;;8.98;3.20;;;14.40;37.70;;;;;;5007555;28;20210;-86
2024/02/09 13:22:47;;;;;;;8.52;3.35;;;14.50;38.90;;;;;;5008602;28;20202;-85
2024/02/09 13:25:16;;;;;;;9.15;3.25;;;14.40;38.80;;;;;;5011114;28;20223;-86
2024/02/09 13:27:45;;;;;;;9.55;3.45;;;14.40;38.30;;;;;;5012712;28;20292;-86
2024/02/09 13:30:20;;;;;;;6.55;3.00;;;14.50;37.90;;;;;;5012363;28;20230;-86
2024/02/09 13:32:48;;;;;;;13.00;3.33;;;14.60;37.40;;;;;;5004060;28;20211;-86
2024/02/09 13:35:17;;;;;;;8.20;3.22;;;14.60;38.80;;;;;;4994707;28;20207;-86
2024/02/09 13:37:45;;;;;;;8.68;3.42;;;14.40;38.00;;;;;;5008667;28;20282;-86
2024/02/09 13:40:15;;;;;;;9.63;3.40;;;14.40;38.00;;;;;;5007332;28;20203;-86
2024/02/09 13:42:45;;;;;;;10.60;3.58;;;14.50;37.50;;;;;;5007297;28;20192;-86
2024/02/09 13:45:14;;;;;;;6.38;3.22;;;14.50;36.90;;;;;;5008838;28;20219;-86
2024/02/09 13:47:42;;;;;;;7.35;2.88;;;14.50;37.40;;;;;;4995959;28;20279;-88
2024/02/09 13:50:11;;;;;;;7.15;2.90;;;14.40;38.00;;;;;;5013858;28;20203;-87
2024/02/09 13:52:38;;;;;;;7.47;2.95;;;14.40;38.00;;;;;;5005777;28;20246;-86
2024/02/09 13:55:09;;;;;;;8.70;3.58;;;14.30;38.50;;;;;;5009502;28;20206;-87
2024/02/09 13:57:36;;;;;;;10.57;3.67;;;14.10;39.00;;;;;;5008576;28;20215;-87
2024/02/09 14:00:07;;;;;;;6.55;3.40;;;14.10;39.30;;;;;;5006736;28;20204;-88
2024/02/09 14:02:35;;;;;;;16.30;3.38;;;14.10;39.20;;;;;;5010743;28;20210;-85
2024/02/09 14:05:04;;;;;;;12.30;4.22;;;14.00;38.80;;;;;;5007864;28;20226;-86
2024/02/09 14:07:31;;;;;;;11.55;3.65;;;13.80;42.30;;;;;;5003954;28;20196;-86
2024/02/09 14:09:58;;;;;;;7.28;3.40;;;13.80;42.50;;;;;;5005838;28;20203;-86
2024/02/09 14:12:27;;;;;;;8.43;3.63;;;13.80;42.40;;;;;;5006802;28;20204;-85
2024/02/09 14:14:54;;;;;;;12.35;3.85;;;13.60;43.80;;;;;;4996665;28;20294;-86
2024/02/09 14:17:21;;;;;;;9.70;3.85;;;13.50;45.40;;;;;;4975953;28;20203;-86
2024/02/09 14:19:50;;;;;;;6.63;3.60;;;13.40;46.60;;;;;;4998201;28;20281;-85
2024/02/09 14:22:18;;;;;;;8.02;4.00;;;13.40;47.70;;;;;;5011800;28;20223;-86
2024/02/09 14:24:46;;;;;;;8.25;3.83;;;13.40;49.90;;;;;;5011086;28;20309;-86
2024/02/09 14:27:14;;;;;;;10.90;3.75;;;13.50;47.50;;;;;;5015457;28;20198;-89
2024/02/09 14:29:41;;;;;;;9.85;3.60;;;13.50;47.60;;;;;;5014358;28;20199;-87
2024/02/09 14:32:09;;;;;;;12.40;3.72;;;13.50;47.50;;;;;;4993484;28;20214;-86
2024/02/09 14:34:38;;;;;;;10.52;3.80;;;13.50;47.90;;;;;;5007073;28;20215;-85
2024/02/09 14:37:07;;;;;;;9.18;3.72;;;13.40;47.80;;;;;;4995976;28;20199;-85
2024/02/09 14:39:34;;;;;;;9.27;3.67;;;13.40;47.10;;;;;;5012065;28;20202;-85
2024/02/09 14:42:00;;;;;;;8.48;3.60;;;13.60;45.90;;;;;;5012071;28;20575;-85
2024/02/09 14:44:30;;;;;;;8.82;4.03;;;13.60;44.30;;;;;;5006891;28;20228;-88
2024/02/09 14:46:57;;;;;;;10.35;3.20;;;13.60;43.80;;;;;;5006427;28;20203;-88
2024/02/09 14:49:24;;;;;;;17.30;3.55;;;13.70;43.80;;;;;;5010364;28;20207;-91
2024/02/09 14:51:51;;;;;;;10.85;3.67;;;13.70;42.50;;;;;;5007759;28;20730;-85
2024/02/09 14:54:20;;;;;;;11.25;3.85;;;13.70;42.60;;;;;;4996280;28;20195;-87
2024/02/09 14:56:46;;;;;;;10.52;3.83;;;13.60;43.30;;;;;;5008241;28;20729;-86
2024/02/09 14:59:13;;;;;;;7.63;3.38;;;13.60;45.70;;;;;;5012667;28;20199;-88
2024/02/09 15:01:40;;;;;;;7.72;3.20;;;13.60;40.70;;;;;;5007103;28;20206;-86
2024/02/09 15:04:07;;;;;;;8.07;3.63;;;13.50;40.20;;;;;;5011851;28;20683;-86
2024/02/09 15:06:36;;;;;;;11.60;3.20;;;13.40;40.00;;;;;;5012580;28;20225;-86
2024/02/09 15:09:09;;;;;;;8.60;2.95;;;13.20;39.60;;;;;;5012491;28;20209;-85
2024/02/09 15:19:30;;;;;;;6.95;3.40;;;12.80;44.30;;;;;;4917229;29;20209;-85
2024/02/09 15:22:35;;;;;;;5.82;3.10;;;12.70;41.10;;;;;;4932548;29;20258;-86
2024/02/09 15:25:16;;;;;;;6.13;3.10;;;12.50;41.50;;;;;;4935926;29;20226;-86
2024/02/09 15:27:44;;;;;;;8.35;3.08;;;12.40;42.50;;;;;;4894021;29;20369;-87
2024/02/09 15:30:15;;;;;;;6.63;3.55;;;12.30;42.90;;;;;;4981943;28;20203;-87
2024/02/09 15:32:41;;;;;;;8.63;3.40;;;12.30;43.20;;;;;;4980228;28;20188;-87
2024/02/09 15:35:24;;;;;;;9.27;3.60;;;12.30;43.60;;;;;;4978841;28;20199;-87
2024/02/09 16:24:25;;;;;;;8.95;3.80;;;12.00;48.90;;;;;;5028227;28;20241;-86
2024/02/09 16:26:52;;;;;;;7.72;3.60;;;11.90;49.40;;;;;;5029559;28;20260;-86
2024/02/09 16:29:19;;;;;;;8.75;3.63;;;11.70;51.50;;;;;;5029771;28;20221;-86
2024/02/09 16:31:48;;;;;;;10.00;4.75;;;11.70;52.00;;;;;;5011722;28;20215;-85
2024/02/09 16:34:15;;;;;;;8.07;4.70;;;11.70;53.20;;;;;;5030922;28;20213;-87
2024/02/09 16:37:07;;;;;;;12.73;7.88;;;11.60;52.90;;;;;;5034140;28;20524;-86
2024/02/09 16:43:12;;;;;;;6.90;4.20;;;12.00;54.00;;;;;;5025962;28;20186;-86
2024/02/09 16:53:30;;;;;;;8.88;4.93;;;11.70;53.70;;;;;;5014909;28;20254;-85
2024/02/09 17:18:30;;;;;;;9.63;5.65;;;11.80;59.10;;;;;;4944542;29;20669;-84
2024/02/09 17:24:29;;;;;;;9.65;5.63;;;11.60;59.30;;;;;;4940009;29;20532;-84
2024/02/09 17:31:11;;;;;;;9.60;5.30;;;11.50;59.10;;;;;;5032954;28;20642;-86
2024/02/09 17:37:03;;;;;;;7.45;5.00;;;11.60;60.00;;;;;;5033670;28;20265;-87
2024/02/09 17:39:31;;;;;;;8.30;5.07;;;11.50;60.30;;;;;;5033624;28;20206;-87
2024/02/09 17:41:58;;;;;;;9.98;5.25;;;11.30;62.40;;;;;;5016244;28;20652;-87
2024/02/09 17:44:39;;;;;;;7.95;5.03;;;11.30;62.40;;;;;;5034384;28;20226;-87
2024/02/09 17:50:56;;;;;;;10.65;5.20;;;11.30;65.20;;;;;;5033541;28;20202;-86
2024/02/09 18:02:00;;;;;;;6.25;4.70;;;11.20;65.80;;;;;;5600758;23;20234;-81
2024/02/09 18:04:27;;;;;;;7.75;5.47;;;11.30;65.00;;;;;;5001751;28;20554;-84
2024/02/09 18:06:54;;;;;;;12.80;5.22;;;11.20;66.10;;;;;;4994667;28;20251;-84
2024/02/09 18:12:49;;;;;;;11.02;5.05;;;11.10;68.00;;;;;;4997147;28;20222;-84
2024/02/09 18:15:16;;;;;;;10.07;5.15;;;10.90;69.60;;;;;;5014574;28;20196;-85
2024/02/09 18:17:44;;;;;;;14.77;5.50;;;10.80;70.90;;;;;;4994232;28;20204;-83
2024/02/09 18:20:12;;;;;;;14.88;5.90;;;10.90;71.00;;;;;;5009328;28;20195;-86
2024/02/09 18:22:39;;;;;;;9.95;5.55;;;11.20;68.30;;;;;;5005895;28;20200;-86
2024/02/09 18:25:06;;;;;;;10.55;5.85;;;11.20;67.10;;;;;;5006154;28;20215;-84
2024/02/09 18:27:35;;;;;;;11.77;5.93;;;11.20;69.20;;;;;;5007757;28;20203;-83
2024/02/09 18:30:02;;;;;;;13.43;5.90;;;11.10;70.60;;;;;;5007571;28;20294;-87
2024/02/09 18:32:29;;;;;;;10.02;5.82;;;11.00;70.90;;;;;;5011065;28;20286;-85
2024/02/09 18:34:57;;;;;;;12.55;5.78;;;11.10;69.90;;;;;;4989138;28;20206;-85
2024/02/09 18:37:24;;;;;;;11.93;6.15;;;11.00;71.40;;;;;;5010494;28;20204;-87
2024/02/09 18:39:51;;;;;;;13.68;6.25;;;11.00;72.10;;;;;;5005210;28;20199;-87
2024/02/09 18:42:19;;;;;;;15.02;6.30;;;11.00;74.10;;;;;;5014283;28;20204;-88
2024/02/09 18:44:45;;;;;;;15.63;6.97;;;11.00;74.10;;;;;;5008849;28;20222;-86
2024/02/09 18:47:12;;;;;;;10.02;6.45;;;10.90;74.00;;;;;;4970384;28;20203;-87
2024/02/09 18:49:39;;;;;;;13.55;6.82;;;10.90;74.00;;;;;;4981717;28;20208;-84
2024/02/09 18:52:10;;;;;;;15.52;6.68;;;10.80;74.00;;;;;;5012135;28;20203;-87
2024/02/09 18:54:40;;;;;;;13.50;6.38;;;10.70;73.80;;;;;;5001724;28;20207;-87
2024/02/09 18:57:07;;;;;;;16.20;7.05;;;10.60;75.30;;;;;;4998909;28;20275;-89
2024/02/09 18:59:34;;;;;;;11.18;6.47;;;10.70;76.20;;;;;;4990558;28;20199;-90
2024/02/09 19:02:02;;;;;;;12.00;6.70;;;10.70;77.40;;;;;;5017300;28;20195;-90
2024/02/09 19:04:30;;;;;;;13.10;6.78;;;10.80;75.50;;;;;;5016837;28;20289;-92
2024/02/09 19:06:57;;;;;;;13.60;7.00;;;10.70;75.70;;;;;;5012695;28;20851;-89
2024/02/09 19:09:25;;;;;;;11.70;6.20;;;10.70;78.30;;;;;;5010776;28;20195;-91
2024/02/09 19:11:56;;;;;;;17.20;6.07;;;10.70;75.90;;;;;;5009634;28;20214;-92
2024/02/09 19:17:12;;;;;;;17.08;7.00;;;10.50;76.00;;;;;;5016139;28;20209;-86
2024/02/09 19:19:40;;;;;;;11.00;6.70;;;10.50;76.20;;;;;;5005613;28;20191;-85
2024/02/09 19:22:07;;;;;;;13.18;6.55;;;10.60;76.10;;;;;;5004743;28;20203;-85
2024/02/09 19:24:37;;;;;;;13.95;6.53;;;10.60;75.80;;;;;;5007537;28;20204;-84
2024/02/09 19:27:09;;;;;;;12.68;6.60;;;10.60;75.90;;;;;;5004681;28;20200;-84
2024/02/09 19:29:36;;;;;;;17.15;6.68;;;10.50;76.20;;;;;;5011309;28;20567;-84
2024/02/09 19:32:03;;;;;;;15.18;6.13;;;10.50;76.50;;;;;;5006119;28;20289;-85
2024/02/09 19:34:30;;;;;;;15.88;6.32;;;10.50;76.30;;;;;;5010863;28;20195;-85
2024/02/09 19:36:57;;;;;;;19.35;6.35;;;10.60;75.90;;;;;;5010586;28;20203;-84
2024/02/09 19:39:24;;;;;;;15.85;6.22;;;10.60;76.50;;;;;;5005812;28;20200;-84
2024/02/09 19:41:52;;;;;;;16.20;6.75;;;10.60;75.30;;;;;;5000371;28;20567;-85
2024/02/09 19:44:20;;;;;;;15.25;6.30;;;10.60;74.30;;;;;;5007041;28;20679;-84
2024/02/09 19:46:47;;;;;;;12.82;5.72;;;10.60;73.70;;;;;;5005311;28;20285;-86
2024/02/09 19:49:15;;;;;;;18.13;5.72;;;10.50;73.60;;;;;;4988092;28;20231;-84
2024/02/09 19:51:50;;;;;;;15.85;5.28;;;10.40;75.50;;;;;;5008587;28;20262;-84
2024/02/09 19:54:20;;;;;;;12.90;5.80;;;10.40;76.20;;;;;;5006971;28;20690;-84
2024/02/09 19:56:48;;;;;;;17.20;5.90;;;10.50;76.00;;;;;;5007095;28;20253;-84
2024/02/09 19:59:16;;;;;;;17.13;5.53;;;10.40;75.40;;;;;;5002953;28;20608;-84
2024/02/09 20:01:43;;;;;;;14.70;5.70;;;10.40;74.40;;;;;;5004188;28;20213;-85
2024/02/09 20:04:14;;;;;;;14.10;5.65;;;10.40;73.80;;;;;;4984260;28;20208;-85
2024/02/09 20:06:44;;;;;;;15.23;6.07;;;10.40;75.10;;;;;;5005893;28;20223;-85
2024/02/09 20:09:11;;;;;;;13.68;5.35;;;10.30;75.00;;;;;;5011629;28;20214;-85
2024/02/09 20:11:38;;;;;;;11.80;5.68;;;10.30;75.10;;;;;;5006945;28;20196;-84
2024/02/09 20:14:05;;;;;;;16.40;5.90;;;10.30;74.30;;;;;;5010344;28;20199;-84
2024/02/09 20:16:35;;;;;;;12.23;5.70;;;10.20;75.40;;;;;;5004510;28;20219;-84
2024/02/09 20:19:02;;;;;;;11.05;5.30;;;10.20;76.30;;;;;;5004888;28;20210;-84
2024/02/09 20:21:31;;;;;;;17.35;6.03;;;10.30;76.40;;;;;;5007925;28;20200;-84
2024/02/09 20:24:01;;;;;;;9.52;5.22;;;10.30;75.30;;;;;;5004797;28;20199;-84
2024/02/09 20:26:28;;;;;;;17.48;6.07;;;10.40;77.10;;;;;;5005459;28;20226;-84
2024/02/09 20:28:56;;;;;;;17.00;6.13;;;10.40;76.30;;;;;;4987751;28;20199;-84
2024/02/09 20:31:23;;;;;;;15.73;6.22;;;10.50;75.50;;;;;;4992145;28;20205;-85
2024/02/09 20:33:51;;;;;;;12.55;6.00;;;10.30;74.40;;;;;;5013762;28;20671;-84
2024/02/09 20:36:18;;;;;;;15.68;6.32;;;10.30;76.50;;;;;;5009236;28;20202;-84
2024/02/09 20:38:45;;;;;;;14.23;6.50;;;10.40;76.00;;;;;;4984394;28;20203;-84
2024/02/09 20:41:16;;;;;;;18.52;6.82;;;10.30;75.10;;;;;;5007972;28;20734;-84
2024/02/09 20:43:43;;;;;;;17.20;6.45;;;10.30;75.20;;;;;;4991610;28;20632;-84
2024/02/09 20:46:13;;;;;;;15.43;7.47;;;10.20;75.70;;;;;;5005102;28;20302;-84
2024/02/09 20:48:43;;;;;;;17.23;8.07;;;10.30;75.60;;;;;;5000070;28;20665;-85
2024/02/09 20:51:13;;;;;;;14.63;7.43;;;10.20;76.00;;;;;;5009959;28;20203;-84
2024/02/09 20:53:43;;;;;;;18.10;7.32;;;10.00;77.40;;;;;;5010261;28;20723;-84
2024/02/09 20:56:10;;;;;;;16.40;7.68;;;10.10;77.40;;;;;;5005415;28;20658;-84
2024/02/09 20:58:40;;;;;;;18.30;7.55;;;10.00;77.90;;;;;;4992577;28;20203;-84
2024/02/09 21:01:11;;;;;;;14.10;7.32;;;9.90;80.00;;;;;;5004609;28;20206;-85
2024/02/09 21:03:39;;;;;;;13.40;7.00;;;9.70;80.80;;;;;;5009612;28;20754;-85
2024/02/09 21:06:08;;;;;;;13.88;7.55;;;9.90;82.20;;;;;;5009405;28;20215;-84
2024/02/09 21:08:37;;;;;;;15.30;6.60;;;9.80;81.40;;;;;;5008837;28;20600;-84
2024/02/09 21:11:05;;;;;;;16.58;7.10;;;9.80;82.20;;;;;;5008556;28;20278;-84
2024/02/09 21:13:32;;;;;;;14.70;7.53;;;10.10;79.00;;;;;;5002720;28;20208;-85
2024/02/09 21:16:01;;;;;;;11.80;6.95;;;10.10;78.80;;;;;;5004527;28;20203;-85
2024/02/09 21:18:29;;;;;;;21.85;6.97;;;9.90;81.00;;;;;;5005833;28;20239;-85
2024/02/09 21:20:56;;;;;;;17.65;6.65;;;9.90;82.10;;;;;;4989597;28;20210;-84
2024/02/09 21:23:23;;;;;;;12.40;6.07;;;10.00;79.20;;;;;;4987388;28;20207;-85
2024/02/09 21:25:53;;;;;;;18.52;6.38;;;10.00;80.10;;;;;;5001925;28;20234;-84
2024/02/09 21:28:23;;;;;;;15.82;6.30;;;10.10;79.10;;;;;;5001343;28;20231;-84
2024/02/09 21:30:50;;;;;;;11.85;6.60;;;10.20;78.30;;;;;;5002709;28;20266;-84
2024/02/09 21:33:18;;;;;;;11.70;6.10;;;10.10;78.20;;;;;;4988836;28;20218;-84
2024/02/09 21:35:46;;;;;;;13.90;5.78;;;10.10;78.30;;;;;;5002988;28;20753;-84
2024/02/09 21:38:13;;;;;;;14.57;6.28;;;10.10;78.60;;;;;;5004150;28;20208;-84
2024/02/09 21:40:41;;;;;;;12.85;6.10;;;10.10;78.80;;;;;;4998102;28;20222;-84
2024/02/09 21:43:09;;;;;;;14.35;5.70;;;9.90;81.00;;;;;;5005753;28;20565;-84
2024/02/09 21:45:39;;;;;;;12.63;5.82;;;9.80;81.80;;;;;;4999703;28;20550;-84
2024/02/09 21:48:07;;;;;;;15.48;6.03;;;9.80;82.50;;;;;;5003067;28;20195;-84
2024/02/09 21:50:34;;;;;;;12.48;5.90;;;9.80;82.50;;;;;;4989464;28;20606;-84
2024/02/09 21:53:03;;;;;;;13.80;6.30;;;9.80;82.80;;;;;;5005646;28;20206;-87
2024/02/09 21:55:30;;;;;;;19.17;6.05;;;9.70;82.90;;;;;;5004533;28;20204;-86
2024/02/09 21:57:57;;;;;;;10.23;5.68;;;9.70;83.40;;;;;;4998648;28;20223;-87
2024/02/09 22:00:26;;;;;;;15.73;6.53;;;9.70;83.50;;;;;;5006476;28;20215;-85
2024/02/09 22:02:53;;;;;;;11.57;6.25;;;9.80;83.50;;;;;;5007298;28;20210;-84
2024/02/09 22:05:20;;;;;;;12.38;5.90;;;10.00;81.50;;;;;;5003161;28;20207;-84
2024/02/09 22:07:50;;;;;;;12.25;5.93;;;10.00;80.80;;;;;;5006378;28;20231;-85
2024/02/09 22:10:17;;;;;;;11.30;5.75;;;10.00;80.50;;;;;;4976336;28;20598;-85
2024/02/09 22:12:49;;;;;;;13.32;6.15;;;10.00;80.90;;;;;;5008610;28;20282;-84
2024/02/09 22:15:17;;;;;;;14.27;6.55;;;10.10;80.90;;;;;;5008919;28;20195;-87
2024/02/09 22:17:46;;;;;;;12.18;6.10;;;10.00;80.50;;;;;;5003647;28;20215;-85
2024/02/09 22:20:13;;;;;;;11.55;5.97;;;9.90;81.90;;;;;;4990881;28;20623;-89
2024/02/09 22:22:43;;;;;;;15.50;6.03;;;10.00;81.30;;;;;;4987074;28;20885;-84
2024/02/09 22:25:13;;;;;;;10.60;6.38;;;10.00;80.60;;;;;;5009578;28;20660;-85
2024/02/09 22:27:40;;;;;;;11.75;6.00;;;10.00;79.30;;;;;;5008476;28;20306;-84
2024/02/09 22:30:08;;;;;;;12.05;5.57;;;10.00;80.60;;;;;;5009059;28;20196;-85
2024/02/09 22:32:36;;;;;;;13.50;5.85;;;10.10;79.90;;;;;;5004347;28;20200;-85
2024/02/09 22:35:09;;;;;;;16.48;6.40;;;10.00;79.80;;;;;;4987451;28;20235;-84
2024/02/09 22:37:38;;;;;;;13.20;6.25;;;9.90;81.40;;;;;;5007272;28;20726;-84
2024/02/09 22:40:11;;;;;;;11.60;5.80;;;9.90;82.40;;;;;;5012760;28;20214;-87
2024/02/09 22:42:39;;;;;;;8.65;6.07;;;9.70;82.60;;;;;;5017561;28;20207;-84
2024/02/09 22:45:17;;;;;;;16.23;5.97;;;9.80;84.40;;;;;;5012983;28;20671;-84
2024/02/09 22:47:44;;;;;;;12.15;6.13;;;9.80;84.10;;;;;;5011567;28;20211;-84
2024/02/09 22:50:14;;;;;;;15.93;6.85;;;9.80;83.50;;;;;;5008481;28;20191;-84
2024/02/09 22:52:41;;;;;;;12.52;6.40;;;9.80;82.00;;;;;;5009962;28;20199;-84
2024/02/09 22:55:09;;;;;;;17.98;6.80;;;9.80;84.40;;;;;;5009861;28;20635;-84
2024/02/09 22:57:38;;;;;;;14.30;6.85;;;9.80;84.00;;;;;;5009733;28;20229;-84
2024/02/09 23:00:10;;;;;;;11.35;5.97;;;9.90;83.30;;;;;;5013137;28;20230;-84
2024/02/09 23:02:37;;;;;;;11.57;6.13;;;9.90;82.70;;;;;;4996373;28;20263;-83
2024/02/09 23:05:05;;;;;;;19.67;7.03;;;9.80;83.50;;;;;;5013066;28;20213;-86
2024/02/09 23:07:34;;;;;;;12.95;6.55;;;9.80;84.40;;;;;;5004662;28;20227;-85
2024/02/09 23:10:06;;;;;;;16.02;6.68;;;9.80;82.20;;;;;;5010777;28;20294;-85
2024/02/09 23:12:34;;;;;;;13.40;6.25;;;9.60;83.90;;;;;;5010555;28;20187;-84
2024/02/09 23:15:01;;;;;;;12.25;6.95;;;9.60;84.10;;;;;;5008620;28;20214;-84
2024/02/09 23:17:27;;;;;;;16.00;7.40;;;9.70;85.00;;;;;;5005738;28;20200;-84
2024/02/09 23:19:54;;;;;;;10.50;6.25;;;9.70;85.20;;;;;;5008895;28;20199;-84
2024/02/09 23:22:21;;;;;;;13.30;6.82;;;9.70;84.90;;;;;;5013695;28;20210;-85
2024/02/09 23:24:49;;;;;;;11.18;6.25;;;9.70;84.00;;;;;;5007464;28;20199;-84
2024/02/09 23:27:16;;;;;;;18.10;7.22;;;9.80;84.40;;;;;;5003545;28;20224;-85
2024/02/09 23:29:43;;;;;;;13.82;6.75;;;9.80;84.50;;;;;;5006165;28;20210;-85
2024/02/09 23:32:10;;;;;;;14.25;7.25;;;9.80;83.50;;;;;;5007331;28;20210;-84
2024/02/09 23:34:39;;;;;;;14.48;6.97;;;9.80;84.20;;;;;;5006066;28;20203;-84
2024/02/09 23:37:06;;;;;;;16.00;7.80;;;9.80;84.60;;;;;;5006052;28;20583;-84
2024/02/09 23:39:33;;;;;;;14.50;7.57;;;9.70;83.50;;;;;;5005933;28;20207;-83
2024/02/09 23:42:01;;;;;;;17.60;8.23;;;9.70;83.50;;;;;;5003372;28;20682;-84
2024/02/09 23:44:28;;;;;;;14.00;6.80;;;9.60;85.50;;;;;;4991845;28;20203;-84
2024/02/09 23:46:56;;;;;;;14.10;6.90;;;9.60;85.60;;;;;;4989772;28;20679;-84
2024/02/09 23:49:23;;;;;;;12.00;6.55;;;9.60;85.50;;;;;;4978758;28;20282;-85
2024/02/09 23:51:51;;;;;;;10.50;6.70;;;9.50;87.00;;;;;;5011218;28;20675;-84
2024/02/09 23:54:18;;;;;;;13.80;6.53;;;9.60;84.80;;;;;;4994929;28;20659;-85
2024/02/09 23:56:45;;;;;;;11.95;6.85;;;9.30;84.50;;;;;;4992867;28;20302;-85
2024/02/09 23:59:15;;;;;;;12.07;6.40;;;9.00;86.40;;;;;;5013143;28;20203;-84
